createdAt,value
2018-06-14T00:02:24.956Z,56.02
2018-06-14T00:07:17.915Z,56.25
2018-06-14T00:12:10.762Z,56.12
2018-06-14T00:17:03.642Z,56.05
2018-06-14T00:21:56.540Z,55.37
2018-06-14T00:26:49.475Z,55.52
2018-06-14T00:31:42.543Z,55.34
2018-06-14T00:36:35.431Z,55.70
2018-06-14T00:41:28.330Z,54.98
2018-06-14T00:46:21.244Z,55.51
2018-06-14T00:51:14.094Z,54.72
2018-06-14T00:56:07.230Z,55.61
2018-06-14T01:01:00.144Z,55.02
2018-06-14T01:05:53.065Z,55.27
2018-06-14T01:10:46.031Z,54.68
2018-06-14T01:15:38.920Z,55.25
2018-06-14T01:20:31.958Z,55.15
2018-06-14T01:25:24.836Z,54.53
2018-06-14T01:30:17.713Z,55.02
2018-06-14T01:35:10.689Z,54.08
2018-06-14T01:40:03.665Z,53.77
2018-06-14T01:44:56.567Z,54.25
2018-06-14T01:49:49.461Z,53.77
2018-06-14T01:54:42.360Z,54.15
2018-06-14T01:59:35.307Z,53.77
2018-06-14T02:04:28.203Z,53.60
2018-06-14T02:09:21.103Z,53.55
2018-06-14T02:14:13.938Z,53.24
2018-06-14T02:19:06.812Z,53.38
2018-06-14T02:23:59.698Z,52.87
2018-06-14T02:28:52.637Z,53.04
2018-06-14T02:33:45.541Z,53.06
2018-06-14T02:38:38.412Z,52.87
2018-06-14T02:43:31.340Z,52.73
2018-06-14T02:48:24.188Z,52.75
2018-06-14T02:53:18.865Z,53.48
2018-06-14T02:58:11.766Z,52.99
2018-06-14T03:03:04.662Z,53.46
2018-06-14T03:07:57.529Z,53.93
2018-06-14T03:12:50.413Z,53.88
2018-06-14T03:17:43.299Z,54.24
2018-06-14T03:22:36.182Z,53.75
2018-06-14T03:27:29.113Z,53.54
2018-06-14T03:32:22.091Z,53.31
2018-06-14T03:37:15.039Z,54.28
2018-06-14T03:42:11.944Z,54.57
2018-06-14T03:47:06.349Z,54.57
2018-06-14T03:51:59.288Z,54.05
2018-06-14T03:56:52.165Z,54.65
2018-06-14T04:01:45.048Z,55.03
2018-06-14T04:06:37.897Z,55.01
2018-06-14T04:11:30.717Z,55.77
2018-06-14T04:16:23.647Z,55.42
2018-06-14T04:21:16.557Z,56.07
2018-06-14T04:26:09.547Z,55.91
2018-06-14T04:31:02.454Z,56.09
2018-06-14T04:35:55.303Z,55.76
2018-06-14T04:40:48.184Z,56.77
2018-06-14T04:45:41.040Z,56.93
2018-06-14T04:50:34.153Z,56.69
2018-06-14T04:55:27.136Z,56.75
2018-06-14T05:00:19.994Z,56.81
2018-06-14T05:05:13.023Z,57.40
2018-06-14T05:10:06.021Z,56.66
2018-06-14T05:14:58.910Z,57.33
2018-06-14T05:19:51.821Z,56.80
2018-06-14T05:24:44.731Z,56.63
2018-06-14T05:29:37.739Z,57.14
2018-06-14T05:34:30.696Z,57.39
2018-06-14T05:39:23.521Z,57.35
2018-06-14T05:44:16.429Z,57.48
2018-06-14T05:49:09.498Z,58.06
2018-06-14T05:54:02.426Z,58.50
2018-06-14T05:58:55.642Z,58.06
2018-06-14T06:03:48.723Z,58.07
2018-06-14T06:08:41.644Z,57.79
2018-06-14T06:13:34.606Z,58.50
2018-06-14T06:18:27.613Z,58.54
2018-06-14T06:23:20.492Z,58.20
2018-06-14T06:28:13.410Z,57.22
2018-06-14T06:33:06.357Z,57.76
2018-06-14T06:37:59.256Z,56.56
2018-06-14T06:42:52.160Z,56.39
2018-06-14T06:47:45.013Z,56.40
2018-06-14T06:52:38.042Z,55.57
2018-06-14T06:57:30.930Z,55.45
2018-06-14T07:02:23.828Z,54.91
2018-06-14T07:07:16.722Z,55.00
2018-06-14T07:12:09.687Z,54.71
2018-06-14T07:17:02.787Z,53.69
2018-06-14T07:21:55.768Z,52.20
2018-06-14T07:26:48.675Z,50.59
2018-06-14T07:31:41.737Z,51.30
2018-06-14T07:36:34.533Z,52.23
2018-06-14T07:41:27.432Z,51.19
2018-06-14T07:46:20.423Z,51.34
2018-06-14T07:51:13.338Z,48.98
2018-06-14T07:56:06.290Z,47.11
2018-06-14T08:00:59.166Z,47.58
2018-06-14T08:05:52.082Z,48.06
2018-06-14T08:10:45.093Z,48.54
2018-06-14T08:15:38.021Z,48.47
2018-06-14T08:20:30.909Z,45.51
2018-06-14T08:25:23.854Z,42.20
2018-06-14T08:30:16.741Z,41.55
2018-06-14T08:35:09.625Z,42.83
2018-06-14T08:40:02.589Z,43.13
2018-06-14T08:44:56.595Z,44.14
2018-06-14T08:49:49.442Z,44.62
2018-06-14T08:54:42.346Z,43.21
2018-06-14T08:59:35.247Z,43.78
2018-06-14T09:04:28.106Z,43.83
2018-06-14T09:09:21.054Z,41.86
2018-06-14T09:14:14.000Z,42.59
2018-06-14T09:19:06.956Z,42.13
2018-06-14T09:23:59.888Z,39.42
2018-06-14T09:28:53.008Z,40.59
2018-06-14T09:33:45.816Z,39.99
2018-06-14T09:38:38.738Z,41.16
2018-06-14T09:43:31.641Z,39.55
2018-06-14T09:48:24.632Z,41.00
2018-06-14T09:53:17.605Z,39.09
2018-06-14T09:58:10.562Z,37.63
2018-06-14T10:03:03.450Z,37.50
2018-06-14T10:07:56.376Z,38.14
2018-06-14T10:12:49.232Z,39.19
2018-06-14T10:17:42.133Z,39.69
2018-06-14T10:22:35.135Z,40.19
2018-06-14T10:27:28.014Z,38.63
2018-06-14T10:37:13.313Z,37.82
2018-06-14T10:42:06.253Z,36.32
2018-06-14T10:46:59.145Z,36.85
2018-06-14T10:51:52.113Z,36.79
2018-06-14T10:56:45.016Z,35.96
2018-06-14T11:01:38.000Z,37.27
2018-06-14T11:06:31.010Z,36.17
2018-06-14T11:11:23.905Z,36.41
2018-06-14T11:16:16.798Z,35.23
2018-06-14T11:21:09.698Z,35.92
2018-06-14T11:26:02.563Z,35.81
2018-06-14T11:30:55.438Z,34.04
2018-06-14T11:35:48.232Z,34.18
2018-06-14T11:40:41.105Z,34.91
2018-06-14T11:45:34.060Z,35.90
2018-06-14T11:50:26.975Z,35.69
2018-06-14T11:55:19.973Z,34.79
2018-06-14T12:00:12.865Z,33.00
2018-06-14T12:05:05.912Z,34.10
2018-06-14T12:09:58.785Z,35.16
2018-06-14T12:14:51.744Z,34.89
2018-06-14T12:19:44.709Z,34.48
2018-06-14T12:24:37.614Z,33.86
2018-06-14T12:29:30.489Z,33.51
2018-06-14T12:34:23.431Z,33.81
2018-06-14T12:39:16.387Z,32.58
2018-06-14T12:44:09.426Z,32.06
2018-06-14T12:49:02.709Z,33.52
2018-06-14T12:53:55.807Z,34.16
2018-06-14T12:58:49.721Z,32.62
2018-06-14T13:03:42.685Z,32.98
2018-06-14T13:08:35.671Z,33.43
2018-06-14T13:13:28.867Z,32.26
2018-06-14T13:18:21.906Z,31.58
2018-06-14T13:23:14.821Z,32.18
2018-06-14T13:28:07.870Z,32.47
2018-06-14T13:33:00.714Z,32.64
2018-06-14T13:37:53.693Z,32.24
2018-06-14T13:42:46.665Z,33.45
2018-06-14T13:47:39.666Z,32.66
2018-06-14T13:52:33.100Z,32.38
2018-06-14T13:57:26.036Z,30.34
2018-06-14T14:02:18.930Z,31.13
2018-06-14T14:07:11.899Z,30.38
2018-06-14T14:12:04.863Z,30.10
2018-06-14T14:16:57.989Z,29.67
2018-06-14T14:21:50.994Z,29.89
2018-06-14T14:26:43.877Z,31.37
2018-06-14T14:31:36.703Z,29.96
2018-06-14T14:36:29.613Z,30.46
2018-06-14T14:41:22.529Z,31.09
2018-06-14T14:46:15.460Z,31.72
2018-06-14T14:51:08.437Z,31.98
2018-06-14T14:56:01.283Z,30.86
2018-06-14T15:00:54.168Z,31.65
2018-06-14T15:05:47.108Z,30.41
2018-06-14T15:10:40.008Z,31.39
2018-06-14T15:15:32.854Z,31.60
2018-06-14T15:20:25.890Z,31.74
2018-06-14T15:25:18.786Z,30.57
2018-06-14T15:30:11.720Z,31.69
2018-06-14T15:35:04.586Z,31.30
2018-06-14T15:39:57.356Z,31.18
2018-06-14T15:44:55.992Z,31.40
2018-06-14T15:49:49.001Z,32.35
2018-06-14T15:54:41.919Z,30.82
2018-06-14T15:59:34.807Z,31.38
2018-06-14T16:04:27.686Z,30.73
2018-06-14T16:09:20.577Z,31.19
2018-06-14T16:14:13.352Z,31.36
2018-06-14T16:19:06.154Z,31.83
2018-06-14T16:23:59.084Z,31.38
2018-06-14T16:28:52.050Z,32.04
2018-06-14T16:33:44.982Z,32.27
2018-06-14T16:38:37.917Z,32.01
2018-06-14T16:43:31.030Z,32.09
2018-06-14T16:48:23.999Z,31.09
2018-06-14T16:53:16.893Z,31.34
2018-06-14T16:58:09.762Z,31.06
2018-06-14T17:03:02.754Z,31.12
2018-06-14T17:07:55.568Z,32.71
2018-06-14T17:12:48.363Z,33.84
2018-06-14T17:17:41.315Z,34.43
2018-06-14T17:22:34.193Z,33.82
2018-06-14T17:27:27.070Z,32.92
2018-06-14T17:32:19.901Z,33.83
2018-06-14T17:37:12.812Z,34.78
2018-06-14T17:42:05.678Z,34.43
2018-06-14T17:46:58.671Z,34.20
2018-06-14T17:51:51.911Z,34.64
2018-06-14T17:56:44.865Z,34.71
2018-06-14T18:01:38.058Z,34.75
2018-06-14T18:06:31.080Z,35.54
2018-06-14T18:11:24.191Z,34.93
2018-06-14T18:16:17.669Z,35.71
2018-06-14T18:21:10.543Z,35.63
2018-06-14T18:26:03.504Z,35.64
2018-06-14T18:30:56.421Z,36.21
2018-06-14T18:35:49.288Z,35.54
2018-06-14T18:40:42.228Z,36.52
2018-06-14T18:45:35.200Z,36.95
2018-06-14T18:50:28.094Z,36.67
2018-06-14T18:55:21.060Z,37.61
2018-06-14T19:00:14.124Z,37.47
2018-06-14T19:05:07.033Z,37.87
2018-06-14T19:09:59.975Z,37.88
2018-06-14T19:14:52.942Z,39.41
2018-06-14T19:19:45.962Z,41.79
2018-06-14T19:24:38.963Z,43.53
2018-06-14T19:29:31.757Z,45.32
2018-06-14T19:34:24.732Z,45.18
2018-06-14T19:39:17.699Z,45.70
2018-06-14T19:44:10.751Z,45.92
2018-06-14T19:49:03.691Z,45.53
2018-06-14T19:53:56.627Z,45.23
2018-06-14T19:58:49.533Z,45.75
2018-06-14T20:03:42.426Z,46.67
2018-06-14T20:08:36.255Z,46.20
2018-06-14T20:13:30.280Z,45.99
2018-06-14T20:18:23.288Z,46.14
2018-06-14T20:23:16.187Z,46.43
2018-06-14T20:28:09.091Z,47.33
2018-06-14T20:33:01.938Z,46.74
2018-06-14T20:37:54.825Z,46.08
2018-06-14T20:42:49.994Z,47.20
2018-06-14T20:47:42.966Z,47.12
2018-06-14T20:52:35.869Z,47.35
2018-06-14T20:57:28.796Z,47.58
2018-06-14T21:02:21.943Z,46.89
2018-06-14T21:07:14.849Z,47.74
2018-06-14T21:12:07.693Z,47.77
2018-06-14T21:17:00.733Z,47.93
2018-06-14T21:21:53.859Z,48.35
2018-06-14T21:26:46.738Z,48.99
2018-06-14T21:31:39.634Z,48.58
2018-06-14T21:36:32.523Z,49.19
2018-06-14T21:41:25.379Z,49.52
2018-06-14T21:55:41.191Z,49.51
2018-06-14T22:00:34.005Z,49.78
2018-06-14T22:05:27.106Z,49.39
2018-06-14T22:10:20.077Z,49.37
2018-06-14T22:15:12.956Z,50.43
2018-06-14T22:20:05.867Z,50.39
2018-06-14T22:24:58.714Z,50.46
2018-06-14T22:29:51.636Z,50.80
2018-06-14T22:34:56.022Z,50.32
2018-06-14T22:39:49.021Z,49.98
2018-06-14T22:44:41.876Z,49.80
2018-06-14T22:49:34.786Z,50.74
2018-06-14T22:54:27.714Z,50.75
2018-06-14T22:59:20.560Z,51.25
2018-06-14T23:04:14.995Z,52.45
2018-06-14T23:10:32.610Z,52.27
2018-06-14T23:15:25.518Z,52.53
2018-06-14T23:20:19.638Z,52.17
2018-06-14T23:25:12.606Z,52.33
2018-06-14T23:30:05.546Z,52.05
2018-06-14T23:34:58.474Z,52.54
2018-06-14T23:39:51.377Z,52.63
2018-06-14T23:44:44.249Z,52.98
2018-06-14T23:49:37.106Z,53.01
2018-06-14T23:54:30.983Z,53.46
2018-06-14T23:59:23.851Z,53.02
